Federal Rhine — 8PNZ — position and weather

sailwx.info

Track history (hours):
 
Tides and Currents Weather Stations Pressure Air Temp Water Temp Dewpoint Dewpoint Depression Visibility Wind Speed Wind Dir Waves Ship Positions

Federal Rhine

Last reported at 2018-Feb-18 22:47 UTC. Time now 2018-Feb-21 11:45 UTC.
Position N 50°29' W 000°10'.

Length 200 m; beam 23.5 m; draft 10.7 m.

Type: Ship. MMSI: 314076000.

Date/timePositionNaut miles runAvg speedWind from/ knotsBaromVisibWave heightAir tempDewpointWater temp
2018-Feb-18 22:47N 50°29' W 000°10'2 7.5
2018-Feb-18 22:30N 50°30' W 000°07'5 7.7
2018-Feb-18 21:50N 50°31' E 000°00'4 8.2
2018-Feb-18 21:22N 50°32' E 000°06'3 8.5
2018-Feb-18 20:58N 50°33' E 000°12'2010.3
2018-Feb-18 19:00N 50°39' E 000°42'811.4
2018-Feb-18 18:19N 50°43' E 000°52'411.3
2018-Feb-18 18:00N 50°45' E 000°57'23 9.8
2018-Feb-18 15:40N 50°60' E 001°25'2 7.9
2018-Feb-18 15:27N 51°01' E 001°27'4 7.3
2018-Feb-18 14:57N 51°04' E 001°31'3 6.4
2018-Feb-18 14:30N 51°06' E 001°34'3 6.5
2018-Feb-18 13:59N 51°08' E 001°37'3 6.7
2018-Feb-18 13:30N 51°11' E 001°41'4 7.4
2018-Feb-18 13:00N 51°13' E 001°45'4 8.5
2018-Feb-18 12:30N 51°17' E 001°48'5 9.7
2018-Feb-18 12:00N 51°21' E 001°52'610.8
2018-Feb-18 11:28N 51°27' E 001°57'511.5
2018-Feb-18 11:00N 51°30' E 002°02'711.5
2018-Feb-18 10:22N 51°36' E 002°10'1611.6
2018-Feb-18 08:59N 51°48' E 002°28'205 9.4
2018-Feb-17 11:07N 54°49' E 005°09'259 8.3
2018-Feb-16 03:50N 57°49' E 010°45'3 7.9
2018-Feb-16 03:30N 57°48' E 010°50'4 8.8
2018-Feb-16 03:00N 57°45' E 010°56'5 9.1
2018-Feb-16 02:30N 57°42' E 011°02'5 9.8
2018-Feb-16 02:00N 57°38' E 011°08'510.0
2018-Feb-16 01:30N 57°35' E 011°15'5 9.6
2018-Feb-16 01:00N 57°32' E 011°22'5 9.8
2018-Feb-16 00:30N 57°28' E 011°28'510.6
2018-Feb-16 00:00N 57°23' E 011°30'510.1
2018-Feb-15 23:30N 57°18' E 011°33'610.3
2018-Feb-15 22:56N 57°13' E 011°37'510.0
2018-Feb-15 22:28N 57°08' E 011°40'12510.5
2018-Feb-15 10:38N 55°06' E 011°03'214.9
2018-Feb-15 10:30N 55°04' E 011°02'612.9
2018-Feb-15 10:00N 54°58' E 010°57'714.2
2018-Feb-15 09:31N 54°52' E 010°50'714.7
2018-Feb-15 09:00N 54°45' E 010°48'510.1
2018-Feb-15 08:30N 54°40' E 010°48'4 6.8
2018-Feb-15 07:58N 54°38' E 010°53'3 5.9
2018-Feb-15 07:30N 54°36' E 010°57'4 8.9
2018-Feb-15 07:00N 54°36' E 011°05'510.4
2018-Feb-15 06:31N 54°35' E 011°13'610.8
2018-Feb-15 05:55N 54°33' E 011°23'410.5
2018-Feb-15 05:30N 54°31' E 011°30'510.2
2018-Feb-15 04:59N 54°28' E 011°38'5 9.8
2018-Feb-15 04:30N 54°27' E 011°46'95 9.4
2018-Feb-14 18:27N 55°09' E 014°13'20 9.8
2018-Feb-14 16:24N 55°25' E 014°34'4 9.8
2018-Feb-14 15:59N 55°28' E 014°40'5 9.8
2018-Feb-14 15:29N 55°30' E 014°47'19 9.5
2018-Feb-14 13:32N 55°38' E 015°17'0 9.3
2018-Feb-14 13:30N 55°38' E 015°17'5 9.5
2018-Feb-14 13:00N 55°41' E 015°24'5 9.5
2018-Feb-14 12:28N 55°43' E 015°33'4 9.7
2018-Feb-14 12:01N 55°45' E 015°39'5 9.7
2018-Feb-14 11:31N 55°47' E 015°47'5 9.7
2018-Feb-14 11:00N 55°49' E 015°55'510.1
2018-Feb-14 10:30N 55°52' E 016°02'612.4
2018-Feb-14 10:01N 55°56' E 016°11'611.0
2018-Feb-14 09:30N 55°59' E 016°19'5 9.6
2018-Feb-14 09:01N 56°02' E 016°26'306 8.9
2018-Feb-12 22:42N 59°37' E 023°14'3 9.2
2018-Feb-12 22:25N 59°38' E 023°19'4 9.2
2018-Feb-12 22:00N 59°39' E 023°26'5 9.2
2018-Feb-12 21:30N 59°40' E 023°35'4 8.8
2018-Feb-12 21:01N 59°41' E 023°43'18 9.0
2018-Feb-12 19:00N 59°46' E 024°18'5 9.4
2018-Feb-12 18:30N 59°47' E 024°27'5 9.2
2018-Feb-12 18:00N 59°48' E 024°36'510.0
2018-Feb-12 17:30N 59°49' E 024°46'5 9.9
2018-Feb-12 17:00N 59°50' E 024°55'39 9.5
2018-Feb-12 12:53N 59°59' E 026°12'4 9.6
2018-Feb-12 12:30N 59°60' E 026°19'5 9.3
2018-Feb-12 12:00N 60°01' E 026°28'5 9.1
2018-Feb-12 11:30N 60°02' E 026°37'5 9.6
2018-Feb-12 11:00N 60°01' E 026°46'5 9.8
2018-Feb-12 10:30N 59°60' E 026°56'4 8.9
2018-Feb-12 10:00N 60°00' E 027°05'5 9.5
2018-Feb-12 09:30N 60°03' E 027°13'5 9.4
2018-Feb-12 09:00N 60°05' E 027°21'4 8.7
2018-Feb-12 08:30N 60°07' E 027°28'4 8.2
2018-Feb-12 08:00N 60°09' E 027°36'4 7.9
2018-Feb-12 07:30N 60°11' E 027°42'4 7.2
2018-Feb-12 07:00N 60°12' E 027°50'3 6.3
2018-Feb-12 06:30N 60°11' E 027°56'4 7.4
2018-Feb-12 06:00N 60°10' E 028°03'4 8.2
2018-Feb-12 05:30N 60°09' E 028°11'4 7.8
2018-Feb-12 05:00N 60°08' E 028°18'4 8.8
2018-Feb-12 04:30N 60°05' E 028°25'5 8.9
2018-Feb-12 03:57N 60°03' E 028°34'40 9.5
2018-Feb-11 23:46N 59°57' E 029°53'3 9.3
2018-Feb-11 23:29N 59°56' E 029°57'5 9.6
2018-Feb-11 23:00N 59°54' E 030°06'3 6.0
2018-Feb-11 22:30N 59°53' E 030°11'0 0.1
2018-Feb-11 22:00N 59°53' E 030°11'0 0.0
2018-Feb-11 21:30N 59°53' E 030°11'0 0.0
2018-Feb-11 21:00N 59°53' E 030°11'0 0.0
2018-Feb-11 20:27N 59°53' E 030°11'0 0.0
2018-Feb-11 20:01N 59°53' E 030°11'0 0.0
2018-Feb-11 19:30N 59°53' E 030°11'0 0.0
2018-Feb-11 19:00N 59°53' E 030°11'0 0.0
2018-Feb-11 18:30N 59°53' E 030°11'0 0.0
2018-Feb-11 18:00N 59°53' E 030°11'0 0.0
2018-Feb-11 17:17N 59°53' E 030°11'0 0.0
2018-Feb-11 17:00N 59°53' E 030°11'0 0.0
2018-Feb-11 16:30N 59°53' E 030°11'0 0.0
2018-Feb-11 16:00N 59°53' E 030°11'0 0.0
2018-Feb-11 15:30N 59°53' E 030°11'0 0.0
2018-Feb-11 15:00N 59°53' E 030°11'0 0.0
2018-Feb-11 14:30N 59°53' E 030°11'0 0.0
2018-Feb-11 14:00N 59°53' E 030°11'0 0.0
2018-Feb-11 13:30N 59°53' E 030°11'0 0.0
2018-Feb-11 13:00N 59°53' E 030°11'0 0.0
2018-Feb-11 12:28N 59°53' E 030°11'0 0.0
2018-Feb-11 11:59N 59°53' E 030°11'0 0.0
2018-Feb-11 11:26N 59°53' E 030°11'0 0.0
2018-Feb-11 10:57N 59°53' E 030°11'0 0.0
2018-Feb-11 10:30N 59°53' E 030°11'0 0.0
2018-Feb-11 10:00N 59°53' E 030°11'0 0.0
2018-Feb-11 09:28N 59°53' E 030°11'0 0.0
2018-Feb-11 08:59N 59°53' E 030°11'0 0.0
2018-Feb-11 08:30N 59°53' E 030°11'0 0.0
2018-Feb-11 08:00N 59°53' E 030°11'0 0.0
2018-Feb-11 07:30N 59°53' E 030°11'0 0.0
2018-Feb-11 07:00N 59°53' E 030°11'0 0.0
2018-Feb-11 06:24N 59°53' E 030°11'0 0.0
2018-Feb-11 06:00N 59°53' E 030°11'0 0.0
2018-Feb-11 05:30N 59°53' E 030°11'0 0.0
2018-Feb-11 05:00N 59°53' E 030°11'0 0.0
2018-Feb-11 04:29N 59°53' E 030°11'0 0.0
2018-Feb-11 03:59N 59°53' E 030°11'0 0.0
2018-Feb-11 03:30N 59°53' E 030°11'0 0.0
2018-Feb-11 03:00N 59°53' E 030°11'0 0.0
2018-Feb-11 02:31N 59°53' E 030°11'0 0.0
2018-Feb-11 02:00N 59°53' E 030°11'0 0.0
2018-Feb-11 01:30N 59°53' E 030°11'0 0.0
2018-Feb-11 01:00N 59°53' E 030°11'0 0.0
2018-Feb-11 00:30N 59°53' E 030°11'0 0.0
2018-Feb-11 00:00N 59°53' E 030°11'0 0.0
2018-Feb-10 23:30N 59°53' E 030°11'0 0.0
2018-Feb-10 23:00N 59°53' E 030°11'0 0.0
2018-Feb-10 22:30N 59°53' E 030°11'0 0.0
2018-Feb-10 22:00N 59°53' E 030°11'0 0.0
2018-Feb-10 21:30N 59°53' E 030°11'0 0.0
2018-Feb-10 21:00N 59°53' E 030°11'0 0.0
2018-Feb-10 20:30N 59°53' E 030°11'0 0.0
2018-Feb-10 19:54N 59°53' E 030°11'0 0.0
2018-Feb-10 19:26N 59°53' E 030°11'0 0.0
2018-Feb-10 19:00N 59°53' E 030°11'0 0.0
2018-Feb-10 18:30N 59°53' E 030°11'0 0.0
2018-Feb-10 17:59N 59°53' E 030°11'0 0.0
2018-Feb-10 17:30N 59°53' E 030°11'0 0.0
2018-Feb-10 17:00N 59°53' E 030°11'0 0.0
2018-Feb-10 16:30N 59°53' E 030°11'0 0.0
2018-Feb-10 16:00N 59°53' E 030°11'0 0.0
2018-Feb-10 15:30N 59°53' E 030°11'0 0.0
2018-Feb-10 15:00N 59°53' E 030°11'0 0.0
2018-Feb-10 14:30N 59°53' E 030°11'0 0.0
2018-Feb-10 14:00N 59°53' E 030°11'0 0.0
2018-Feb-10 13:30N 59°53' E 030°11'0 0.0
2018-Feb-10 13:01N 59°53' E 030°11'0 0.0
2018-Feb-10 12:30N 59°53' E 030°11'0 0.0
2018-Feb-10 11:58N 59°53' E 030°11'0 0.0
2018-Feb-10 11:30N 59°53' E 030°11'0 0.0
2018-Feb-10 11:00N 59°53' E 030°11'0 0.0
2018-Feb-10 10:30N 59°53' E 030°11'0 0.0
2018-Feb-10 10:00N 59°53' E 030°11'0 0.0
2018-Feb-10 09:30N 59°53' E 030°11'0 0.0
2018-Feb-10 08:59N 59°53' E 030°11'0 0.0
2018-Feb-10 08:27N 59°53' E 030°11'0 0.0
2018-Feb-10 08:00N 59°53' E 030°11'0 0.0
2018-Feb-10 07:28N 59°53' E 030°11'0 0.0
2018-Feb-10 07:00N 59°53' E 030°11'0 0.0
2018-Feb-10 06:18N 59°53' E 030°11'0 0.0
2018-Feb-10 05:59N 59°53' E 030°11'0 0.0
2018-Feb-10 05:30N 59°53' E 030°11'0 0.3
2018-Feb-10 05:00N 59°53' E 030°12'1 2.7
2018-Feb-10 04:31N 59°53' E 030°09'4 7.0
2018-Feb-10 04:00N 59°55' E 030°03'610.5
2018-Feb-10 03:28N 59°57' E 029°52'  
Track history (hours):
 
Tides and Currents Weather Stations Pressure Air Temp Water Temp Dewpoint Dewpoint Depression Visibility Wind Speed Wind Dir Waves Ship Positions

Federal Rhine

Last reported at 2018-Feb-18 22:47 UTC. Time now 2018-Feb-21 11:45 UTC.
Position N 50°29' W 000°10'.

Length 200 m; beam 23.5 m; draft 10.7 m.

Type: Ship. MMSI: 314076000.

Date/timePositionNaut miles runAvg speedWind from/ knotsBaromVisibWave heightAir tempDewpointWater temp
2018-Feb-18 22:47N 50°29' W 000°10'2 7.5
2018-Feb-18 22:30N 50°30' W 000°07'5 7.7
2018-Feb-18 21:50N 50°31' E 000°00'4 8.2
2018-Feb-18 21:22N 50°32' E 000°06'3 8.5
2018-Feb-18 20:58N 50°33' E 000°12'2010.3
2018-Feb-18 19:00N 50°39' E 000°42'811.4
2018-Feb-18 18:19N 50°43' E 000°52'411.3
2018-Feb-18 18:00N 50°45' E 000°57'23 9.8
2018-Feb-18 15:40N 50°60' E 001°25'2 7.9
2018-Feb-18 15:27N 51°01' E 001°27'4 7.3
2018-Feb-18 14:57N 51°04' E 001°31'3 6.4
2018-Feb-18 14:30N 51°06' E 001°34'3 6.5
2018-Feb-18 13:59N 51°08' E 001°37'3 6.7
2018-Feb-18 13:30N 51°11' E 001°41'4 7.4
2018-Feb-18 13:00N 51°13' E 001°45'4 8.5
2018-Feb-18 12:30N 51°17' E 001°48'5 9.7
2018-Feb-18 12:00N 51°21' E 001°52'610.8
2018-Feb-18 11:28N 51°27' E 001°57'511.5
2018-Feb-18 11:00N 51°30' E 002°02'711.5
2018-Feb-18 10:22N 51°36' E 002°10'1611.6
2018-Feb-18 08:59N 51°48' E 002°28'205 9.4
2018-Feb-17 11:07N 54°49' E 005°09'259 8.3
2018-Feb-16 03:50N 57°49' E 010°45'3 7.9
2018-Feb-16 03:30N 57°48' E 010°50'4 8.8
2018-Feb-16 03:00N 57°45' E 010°56'5 9.1
2018-Feb-16 02:30N 57°42' E 011°02'5 9.8
2018-Feb-16 02:00N 57°38' E 011°08'510.0
2018-Feb-16 01:30N 57°35' E 011°15'5 9.6
2018-Feb-16 01:00N 57°32' E 011°22'5 9.8
2018-Feb-16 00:30N 57°28' E 011°28'510.6
2018-Feb-16 00:00N 57°23' E 011°30'510.1
2018-Feb-15 23:30N 57°18' E 011°33'610.3
2018-Feb-15 22:56N 57°13' E 011°37'510.0
2018-Feb-15 22:28N 57°08' E 011°40'12510.5
2018-Feb-15 10:38N 55°06' E 011°03'214.9
2018-Feb-15 10:30N 55°04' E 011°02'612.9
2018-Feb-15 10:00N 54°58' E 010°57'714.2
2018-Feb-15 09:31N 54°52' E 010°50'714.7
2018-Feb-15 09:00N 54°45' E 010°48'510.1
2018-Feb-15 08:30N 54°40' E 010°48'4 6.8
2018-Feb-15 07:58N 54°38' E 010°53'3 5.9
2018-Feb-15 07:30N 54°36' E 010°57'4 8.9
2018-Feb-15 07:00N 54°36' E 011°05'510.4
2018-Feb-15 06:31N 54°35' E 011°13'610.8
2018-Feb-15 05:55N 54°33' E 011°23'410.5
2018-Feb-15 05:30N 54°31' E 011°30'510.2
2018-Feb-15 04:59N 54°28' E 011°38'5 9.8
2018-Feb-15 04:30N 54°27' E 011°46'95 9.4
2018-Feb-14 18:27N 55°09' E 014°13'20 9.8
2018-Feb-14 16:24N 55°25' E 014°34'4 9.8
2018-Feb-14 15:59N 55°28' E 014°40'5 9.8
2018-Feb-14 15:29N 55°30' E 014°47'19 9.5
2018-Feb-14 13:32N 55°38' E 015°17'0 9.3
2018-Feb-14 13:30N 55°38' E 015°17'5 9.5
2018-Feb-14 13:00N 55°41' E 015°24'5 9.5
2018-Feb-14 12:28N 55°43' E 015°33'4 9.7
2018-Feb-14 12:01N 55°45' E 015°39'5 9.7
2018-Feb-14 11:31N 55°47' E 015°47'5 9.7
2018-Feb-14 11:00N 55°49' E 015°55'510.1
2018-Feb-14 10:30N 55°52' E 016°02'612.4
2018-Feb-14 10:01N 55°56' E 016°11'611.0
2018-Feb-14 09:30N 55°59' E 016°19'5 9.6
2018-Feb-14 09:01N 56°02' E 016°26'306 8.9
2018-Feb-12 22:42N 59°37' E 023°14'3 9.2
2018-Feb-12 22:25N 59°38' E 023°19'4 9.2
2018-Feb-12 22:00N 59°39' E 023°26'5 9.2
2018-Feb-12 21:30N 59°40' E 023°35'4 8.8
2018-Feb-12 21:01N 59°41' E 023°43'18 9.0
2018-Feb-12 19:00N 59°46' E 024°18'5 9.4
2018-Feb-12 18:30N 59°47' E 024°27'5 9.2
2018-Feb-12 18:00N 59°48' E 024°36'510.0
2018-Feb-12 17:30N 59°49' E 024°46'5 9.9
2018-Feb-12 17:00N 59°50' E 024°55'39 9.5
2018-Feb-12 12:53N 59°59' E 026°12'4 9.6
2018-Feb-12 12:30N 59°60' E 026°19'5 9.3
2018-Feb-12 12:00N 60°01' E 026°28'5 9.1
2018-Feb-12 11:30N 60°02' E 026°37'5 9.6
2018-Feb-12 11:00N 60°01' E 026°46'5 9.8
2018-Feb-12 10:30N 59°60' E 026°56'4 8.9
2018-Feb-12 10:00N 60°00' E 027°05'5 9.5
2018-Feb-12 09:30N 60°03' E 027°13'5 9.4
2018-Feb-12 09:00N 60°05' E 027°21'4 8.7
2018-Feb-12 08:30N 60°07' E 027°28'4 8.2
2018-Feb-12 08:00N 60°09' E 027°36'4 7.9
2018-Feb-12 07:30N 60°11' E 027°42'4 7.2
2018-Feb-12 07:00N 60°12' E 027°50'3 6.3
2018-Feb-12 06:30N 60°11' E 027°56'4 7.4
2018-Feb-12 06:00N 60°10' E 028°03'4 8.2
2018-Feb-12 05:30N 60°09' E 028°11'4 7.8
2018-Feb-12 05:00N 60°08' E 028°18'4 8.8
2018-Feb-12 04:30N 60°05' E 028°25'5 8.9
2018-Feb-12 03:57N 60°03' E 028°34'40 9.5
2018-Feb-11 23:46N 59°57' E 029°53'3 9.3
2018-Feb-11 23:29N 59°56' E 029°57'5 9.6
2018-Feb-11 23:00N 59°54' E 030°06'3 6.0
2018-Feb-11 22:30N 59°53' E 030°11'0 0.1
2018-Feb-11 22:00N 59°53' E 030°11'0 0.0
2018-Feb-11 21:30N 59°53' E 030°11'0 0.0
2018-Feb-11 21:00N 59°53' E 030°11'0 0.0
2018-Feb-11 20:27N 59°53' E 030°11'0 0.0
2018-Feb-11 20:01N 59°53' E 030°11'0 0.0
2018-Feb-11 19:30N 59°53' E 030°11'0 0.0
2018-Feb-11 19:00N 59°53' E 030°11'0 0.0
2018-Feb-11 18:30N 59°53' E 030°11'0 0.0
2018-Feb-11 18:00N 59°53' E 030°11'0 0.0
2018-Feb-11 17:17N 59°53' E 030°11'0 0.0
2018-Feb-11 17:00N 59°53' E 030°11'0 0.0
2018-Feb-11 16:30N 59°53' E 030°11'0 0.0
2018-Feb-11 16:00N 59°53' E 030°11'0 0.0
2018-Feb-11 15:30N 59°53' E 030°11'0 0.0
2018-Feb-11 15:00N 59°53' E 030°11'0 0.0
2018-Feb-11 14:30N 59°53' E 030°11'0 0.0
2018-Feb-11 14:00N 59°53' E 030°11'0 0.0
2018-Feb-11 13:30N 59°53' E 030°11'0 0.0
2018-Feb-11 13:00N 59°53' E 030°11'0 0.0
2018-Feb-11 12:28N 59°53' E 030°11'0 0.0
2018-Feb-11 11:59N 59°53' E 030°11'0 0.0
2018-Feb-11 11:26N 59°53' E 030°11'0 0.0
2018-Feb-11 10:57N 59°53' E 030°11'0 0.0
2018-Feb-11 10:30N 59°53' E 030°11'0 0.0
2018-Feb-11 10:00N 59°53' E 030°11'0 0.0
2018-Feb-11 09:28N 59°53' E 030°11'0 0.0
2018-Feb-11 08:59N 59°53' E 030°11'0 0.0
2018-Feb-11 08:30N 59°53' E 030°11'0 0.0
2018-Feb-11 08:00N 59°53' E 030°11'0 0.0
2018-Feb-11 07:30N 59°53' E 030°11'0 0.0
2018-Feb-11 07:00N 59°53' E 030°11'0 0.0
2018-Feb-11 06:24N 59°53' E 030°11'0 0.0
2018-Feb-11 06:00N 59°53' E 030°11'0 0.0
2018-Feb-11 05:30N 59°53' E 030°11'0 0.0
2018-Feb-11 05:00N 59°53' E 030°11'0 0.0
2018-Feb-11 04:29N 59°53' E 030°11'0 0.0
2018-Feb-11 03:59N 59°53' E 030°11'0 0.0
2018-Feb-11 03:30N 59°53' E 030°11'0 0.0
2018-Feb-11 03:00N 59°53' E 030°11'0 0.0
2018-Feb-11 02:31N 59°53' E 030°11'0 0.0
2018-Feb-11 02:00N 59°53' E 030°11'0 0.0
2018-Feb-11 01:30N 59°53' E 030°11'0 0.0
2018-Feb-11 01:00N 59°53' E 030°11'0 0.0
2018-Feb-11 00:30N 59°53' E 030°11'0 0.0
2018-Feb-11 00:00N 59°53' E 030°11'0 0.0
2018-Feb-10 23:30N 59°53' E 030°11'0 0.0
2018-Feb-10 23:00N 59°53' E 030°11'0 0.0
2018-Feb-10 22:30N 59°53' E 030°11'0 0.0
2018-Feb-10 22:00N 59°53' E 030°11'0 0.0
2018-Feb-10 21:30N 59°53' E 030°11'0 0.0
2018-Feb-10 21:00N 59°53' E 030°11'0 0.0
2018-Feb-10 20:30N 59°53' E 030°11'0 0.0
2018-Feb-10 19:54N 59°53' E 030°11'0 0.0
2018-Feb-10 19:26N 59°53' E 030°11'0 0.0
2018-Feb-10 19:00N 59°53' E 030°11'0 0.0
2018-Feb-10 18:30N 59°53' E 030°11'0 0.0
2018-Feb-10 17:59N 59°53' E 030°11'0 0.0
2018-Feb-10 17:30N 59°53' E 030°11'0 0.0
2018-Feb-10 17:00N 59°53' E 030°11'0 0.0
2018-Feb-10 16:30N 59°53' E 030°11'0 0.0
2018-Feb-10 16:00N 59°53' E 030°11'0 0.0
2018-Feb-10 15:30N 59°53' E 030°11'0 0.0
2018-Feb-10 15:00N 59°53' E 030°11'0 0.0
2018-Feb-10 14:30N 59°53' E 030°11'0 0.0
2018-Feb-10 14:00N 59°53' E 030°11'0 0.0
2018-Feb-10 13:30N 59°53' E 030°11'0 0.0
2018-Feb-10 13:01N 59°53' E 030°11'0 0.0
2018-Feb-10 12:30N 59°53' E 030°11'0 0.0
2018-Feb-10 11:58N 59°53' E 030°11'0 0.0
2018-Feb-10 11:30N 59°53' E 030°11'0 0.0
2018-Feb-10 11:00N 59°53' E 030°11'0 0.0
2018-Feb-10 10:30N 59°53' E 030°11'0 0.0
2018-Feb-10 10:00N 59°53' E 030°11'0 0.0
2018-Feb-10 09:30N 59°53' E 030°11'0 0.0
2018-Feb-10 08:59N 59°53' E 030°11'0 0.0
2018-Feb-10 08:27N 59°53' E 030°11'0 0.0
2018-Feb-10 08:00N 59°53' E 030°11'0 0.0
2018-Feb-10 07:28N 59°53' E 030°11'0 0.0
2018-Feb-10 07:00N 59°53' E 030°11'0 0.0
2018-Feb-10 06:18N 59°53' E 030°11'0 0.0
2018-Feb-10 05:59N 59°53' E 030°11'0 0.0
2018-Feb-10 05:30N 59°53' E 030°11'0 0.3
2018-Feb-10 05:00N 59°53' E 030°12'1 2.7
2018-Feb-10 04:31N 59°53' E 030°09'4 7.0
2018-Feb-10 04:00N 59°55' E 030°03'610.5
2018-Feb-10 03:28N 59°57' E 029°52'  

Dump ship's entire track history